sensor_id;sensor_type;location;lat;lon;timestamp;temperature;humidity
6480;DHT22;71753;48.772;9.148;2024-03-08T00:01:25;3.75;79.94
6480;DHT22;71753;48.772;9.148;2024-03-08T00:03:51;3.73;80.07
6480;DHT22;71753;48.772;9.148;2024-03-08T00:06:18;3.67;80.27
6480;DHT22;71753;48.772;9.148;2024-03-08T00:08:45;3.67;80.21
6480;DHT22;71753;48.772;9.148;2024-03-08T00:11:12;3.65;80.11
6480;DHT22;71753;48.772;9.148;2024-03-08T00:13:38;3.61;80.08
6480;DHT22;71753;48.772;9.148;2024-03-08T00:16:05;3.55;80.29
6480;DHT22;71753;48.772;9.148;2024-03-08T00:18:34;3.56;80.37
6480;DHT22;71753;48.772;9.148;2024-03-08T00:21:01;3.52;80.69
6480;DHT22;71753;48.772;9.148;2024-03-08T00:23:27;3.54;80.56
6480;DHT22;71753;48.772;9.148;2024-03-08T00:25:54;3.49;80.70
6480;DHT22;71753;48.772;9.148;2024-03-08T00:28:21;3.41;81.12
6480;DHT22;71753;48.772;9.148;2024-03-08T00:30:50;3.34;81.53
6480;DHT22;71753;48.772;9.148;2024-03-08T00:33:17;3.30;81.80
6480;DHT22;71753;48.772;9.148;2024-03-08T00:35:45;3.26;82.01
6480;DHT22;71753;48.772;9.148;2024-03-08T00:38:11;3.17;82.33
6480;DHT22;71753;48.772;9.148;2024-03-08T00:40:38;3.13;82.61
6480;DHT22;71753;48.772;9.148;2024-03-08T00:43:05;3.04;82.95
6480;DHT22;71753;48.772;9.148;2024-03-08T00:45:32;3.01;83.32
6480;DHT22;71753;48.772;9.148;2024-03-08T00:47:59;2.98;83.51
6480;DHT22;71753;48.772;9.148;2024-03-08T00:50:25;2.98;83.61
6480;DHT22;71753;48.772;9.148;2024-03-08T00:52:53;2.91;83.79
6480;DHT22;71753;48.772;9.148;2024-03-08T00:55:21;2.93;83.77
6480;DHT22;71753;48.772;9.148;2024-03-08T00:57:48;2.90;83.77
6480;DHT22;71753;48.772;9.148;2024-03-08T01:00:15;2.75;84.20
6480;DHT22;71753;48.772;9.148;2024-03-08T01:02:42;2.75;84.48
6480;DHT22;71753;48.772;9.148;2024-03-08T01:05:09;2.81;84.22
6480;DHT22;71753;48.772;9.148;2024-03-08T01:07:35;2.78;84.11
6480;DHT22;71753;48.772;9.148;2024-03-08T01:10:04;2.74;84.16
6480;DHT22;71753;48.772;9.148;2024-03-08T01:12:34;2.76;84.01
6480;DHT22;71753;48.772;9.148;2024-03-08T01:15:01;2.60;84.68
6480;DHT22;71753;48.772;9.148;2024-03-08T01:17:28;2.67;84.59
6480;DHT22;71753;48.772;9.148;2024-03-08T01:19:55;2.69;84.35
6480;DHT22;71753;48.772;9.148;2024-03-08T01:22:22;2.67;84.34
6480;DHT22;71753;48.772;9.148;2024-03-08T01:24:48;2.69;84.03
6480;DHT22;71753;48.772;9.148;2024-03-08T01:27:16;2.69;84.21
6480;DHT22;71753;48.772;9.148;2024-03-08T01:29:43;2.67;84.17
6480;DHT22;71753;48.772;9.148;2024-03-08T01:32:10;2.62;84.25
6480;DHT22;71753;48.772;9.148;2024-03-08T01:34:37;2.60;84.20
6480;DHT22;71753;48.772;9.148;2024-03-08T01:37:04;2.41;84.48
6480;DHT22;71753;48.772;9.148;2024-03-08T01:39:32;2.22;85.35
6480;DHT22;71753;48.772;9.148;2024-03-08T01:41:58;2.02;86.41
6480;DHT22;71753;48.772;9.148;2024-03-08T01:44:27;2.10;86.05
6480;DHT22;71753;48.772;9.148;2024-03-08T01:46:54;2.29;86.12
6480;DHT22;71753;48.772;9.148;2024-03-08T01:49:21;2.11;85.90
6480;DHT22;71753;48.772;9.148;2024-03-08T01:51:49;1.93;86.81
6480;DHT22;71753;48.772;9.148;2024-03-08T01:54:18;1.93;86.98
6480;DHT22;71753;48.772;9.148;2024-03-08T01:56:45;1.77;87.48
6480;DHT22;71753;48.772;9.148;2024-03-08T01:59:12;1.52;88.47
6480;DHT22;71753;48.772;9.148;2024-03-08T02:01:41;1.53;88.86
6480;DHT22;71753;48.772;9.148;2024-03-08T02:04:08;1.60;88.35
6480;DHT22;71753;48.772;9.148;2024-03-08T02:06:35;1.63;88.20
6480;DHT22;71753;48.772;9.148;2024-03-08T02:09:03;1.90;87.38
6480;DHT22;71753;48.772;9.148;2024-03-08T02:11:31;1.60;87.81
6480;DHT22;71753;48.772;9.148;2024-03-08T02:13:58;1.51;88.52
6480;DHT22;71753;48.772;9.148;2024-03-08T02:16:25;1.38;88.39
6480;DHT22;71753;48.772;9.148;2024-03-08T02:18:53;1.40;88.76
6480;DHT22;71753;48.772;9.148;2024-03-08T02:21:21;1.40;89.10
6480;DHT22;71753;48.772;9.148;2024-03-08T02:23:47;1.35;88.43
6480;DHT22;71753;48.772;9.148;2024-03-08T02:26:16;1.19;89.60
6480;DHT22;71753;48.772;9.148;2024-03-08T02:28:43;1.28;89.11
6480;DHT22;71753;48.772;9.148;2024-03-08T02:31:11;1.32;88.93
6480;DHT22;71753;48.772;9.148;2024-03-08T02:33:37;1.49;88.58
6480;DHT22;71753;48.772;9.148;2024-03-08T02:36:05;1.51;87.81
6480;DHT22;71753;48.772;9.148;2024-03-08T02:38:33;1.56;87.80
6480;DHT22;71753;48.772;9.148;2024-03-08T02:41:00;1.66;87.18
6480;DHT22;71753;48.772;9.148;2024-03-08T02:43:27;1.39;88.38
6480;DHT22;71753;48.772;9.148;2024-03-08T02:45:54;1.28;88.61
6480;DHT22;71753;48.772;9.148;2024-03-08T02:48:20;1.47;88.28
6480;DHT22;71753;48.772;9.148;2024-03-08T02:50:47;1.33;88.85
6480;DHT22;71753;48.772;9.148;2024-03-08T02:53:16;1.12;88.96
6480;DHT22;71753;48.772;9.148;2024-03-08T02:55:45;1.02;89.19
6480;DHT22;71753;48.772;9.148;2024-03-08T02:58:12;0.82;90.01
6480;DHT22;71753;48.772;9.148;2024-03-08T03:00:40;0.99;90.18
6480;DHT22;71753;48.772;9.148;2024-03-08T03:03:06;1.20;89.30
6480;DHT22;71753;48.772;9.148;2024-03-08T03:05:33;1.29;88.70
6480;DHT22;71753;48.772;9.148;2024-03-08T03:08:00;1.42;88.38
6480;DHT22;71753;48.772;9.148;2024-03-08T03:10:26;1.67;86.44
6480;DHT22;71753;48.772;9.148;2024-03-08T03:12:54;1.54;86.70
6480;DHT22;71753;48.772;9.148;2024-03-08T03:15:21;1.45;87.38
6480;DHT22;71753;48.772;9.148;2024-03-08T03:17:48;1.51;87.05
6480;DHT22;71753;48.772;9.148;2024-03-08T03:20:16;2.00;83.54
6480;DHT22;71753;48.772;9.148;2024-03-08T03:22:48;2.03;83.29
6480;DHT22;71753;48.772;9.148;2024-03-08T03:25:17;2.05;83.11
6480;DHT22;71753;48.772;9.148;2024-03-08T03:27:49;2.03;82.98
6480;DHT22;71753;48.772;9.148;2024-03-08T03:30:17;2.07;82.22
6480;DHT22;71753;48.772;9.148;2024-03-08T03:32:47;2.13;81.72
6480;DHT22;71753;48.772;9.148;2024-03-08T03:35:15;2.16;81.45
6480;DHT22;71753;48.772;9.148;2024-03-08T03:37:42;2.14;81.34
6480;DHT22;71753;48.772;9.148;2024-03-08T03:40:12;2.13;81.40
6480;DHT22;71753;48.772;9.148;2024-03-08T03:42:39;2.10;81.64
6480;DHT22;71753;48.772;9.148;2024-03-08T03:45:06;2.10;81.41
6480;DHT22;71753;48.772;9.148;2024-03-08T03:47:36;2.08;81.38
6480;DHT22;71753;48.772;9.148;2024-03-08T03:50:05;2.10;81.49
6480;DHT22;71753;48.772;9.148;2024-03-08T03:52:32;2.10;81.34
6480;DHT22;71753;48.772;9.148;2024-03-08T03:54:59;2.06;81.58
6480;DHT22;71753;48.772;9.148;2024-03-08T03:57:25;2.09;81.38
6480;DHT22;71753;48.772;9.148;2024-03-08T03:59:52;2.05;81.68
6480;DHT22;71753;48.772;9.148;2024-03-08T04:02:19;1.99;81.82
6480;DHT22;71753;48.772;9.148;2024-03-08T04:04:47;1.96;82.02
6480;DHT22;71753;48.772;9.148;2024-03-08T04:07:14;1.95;82.03
6480;DHT22;71753;48.772;9.148;2024-03-08T04:09:42;1.96;81.90
6480;DHT22;71753;48.772;9.148;2024-03-08T04:12:08;1.94;81.81
6480;DHT22;71753;48.772;9.148;2024-03-08T04:14:35;1.90;82.36
6480;DHT22;71753;48.772;9.148;2024-03-08T04:17:02;1.90;82.45
6480;DHT22;71753;48.772;9.148;2024-03-08T04:19:28;1.85;82.49
6480;DHT22;71753;48.772;9.148;2024-03-08T04:21:56;1.87;82.61
6480;DHT22;71753;48.772;9.148;2024-03-08T04:24:22;1.82;82.81
6480;DHT22;71753;48.772;9.148;2024-03-08T04:26:49;1.86;82.53
6480;DHT22;71753;48.772;9.148;2024-03-08T04:29:16;1.83;82.76
6480;DHT22;71753;48.772;9.148;2024-03-08T04:31:42;1.82;82.83
6480;DHT22;71753;48.772;9.148;2024-03-08T04:34:10;1.83;82.49
6480;DHT22;71753;48.772;9.148;2024-03-08T04:36:36;1.79;82.89
6480;DHT22;71753;48.772;9.148;2024-03-08T04:39:04;1.75;83.09
6480;DHT22;71753;48.772;9.148;2024-03-08T04:41:31;1.73;83.08
6480;DHT22;71753;48.772;9.148;2024-03-08T04:43:59;1.75;83.15
6480;DHT22;71753;48.772;9.148;2024-03-08T04:46:26;1.75;83.00
6480;DHT22;71753;48.772;9.148;2024-03-08T04:48:53;1.72;83.10
6480;DHT22;71753;48.772;9.148;2024-03-08T04:51:20;1.69;83.16
6480;DHT22;71753;48.772;9.148;2024-03-08T04:53:47;1.68;83.23
6480;DHT22;71753;48.772;9.148;2024-03-08T04:56:15;1.67;83.43
6480;DHT22;71753;48.772;9.148;2024-03-08T04:58:42;1.64;83.56
6480;DHT22;71753;48.772;9.148;2024-03-08T05:01:08;1.64;83.73
6480;DHT22;71753;48.772;9.148;2024-03-08T05:03:36;1.67;83.37
6480;DHT22;71753;48.772;9.148;2024-03-08T05:06:04;1.72;83.17
6480;DHT22;71753;48.772;9.148;2024-03-08T05:08:30;1.67;83.32
6480;DHT22;71753;48.772;9.148;2024-03-08T05:10:58;1.66;83.49
6480;DHT22;71753;48.772;9.148;2024-03-08T05:13:30;1.66;83.46
6480;DHT22;71753;48.772;9.148;2024-03-08T05:15:57;1.66;83.34
6480;DHT22;71753;48.772;9.148;2024-03-08T05:18:23;1.62;83.61
6480;DHT22;71753;48.772;9.148;2024-03-08T05:20:50;1.55;83.97
6480;DHT22;71753;48.772;9.148;2024-03-08T05:23:17;1.54;84.00
6480;DHT22;71753;48.772;9.148;2024-03-08T05:25:45;1.54;84.10
6480;DHT22;71753;48.772;9.148;2024-03-08T05:28:12;1.55;84.03
6480;DHT22;71753;48.772;9.148;2024-03-08T05:30:40;1.51;84.28
6480;DHT22;71753;48.772;9.148;2024-03-08T05:33:06;1.50;84.31
6480;DHT22;71753;48.772;9.148;2024-03-08T05:35:35;1.49;84.36
6480;DHT22;71753;48.772;9.148;2024-03-08T05:38:02;1.49;84.28
6480;DHT22;71753;48.772;9.148;2024-03-08T05:40:29;1.49;84.38
6480;DHT22;71753;48.772;9.148;2024-03-08T05:42:57;1.48;84.49
6480;DHT22;71753;48.772;9.148;2024-03-08T05:45:24;1.49;84.43
6480;DHT22;71753;48.772;9.148;2024-03-08T05:47:53;1.49;84.31
6480;DHT22;71753;48.772;9.148;2024-03-08T05:50:19;1.51;84.25
6480;DHT22;71753;48.772;9.148;2024-03-08T05:52:46;1.52;83.95
6480;DHT22;71753;48.772;9.148;2024-03-08T05:55:15;1.50;84.14
6480;DHT22;71753;48.772;9.148;2024-03-08T05:57:41;1.48;84.51
6480;DHT22;71753;48.772;9.148;2024-03-08T06:00:10;1.52;83.96
6480;DHT22;71753;48.772;9.148;2024-03-08T06:02:37;1.52;84.10
6480;DHT22;71753;48.772;9.148;2024-03-08T06:05:09;1.52;84.17
6480;DHT22;71753;48.772;9.148;2024-03-08T06:07:36;1.56;83.84
6480;DHT22;71753;48.772;9.148;2024-03-08T06:10:07;1.60;84.04
6480;DHT22;71753;48.772;9.148;2024-03-08T06:12:35;1.60;84.13
6480;DHT22;71753;48.772;9.148;2024-03-08T06:15:06;1.58;84.01
6480;DHT22;71753;48.772;9.148;2024-03-08T06:17:32;1.61;83.91
6480;DHT22;71753;48.772;9.148;2024-03-08T06:20:00;1.65;83.80
6480;DHT22;71753;48.772;9.148;2024-03-08T06:22:28;1.66;83.45
6480;DHT22;71753;48.772;9.148;2024-03-08T06:24:55;1.64;83.66
6480;DHT22;71753;48.772;9.148;2024-03-08T06:27:22;1.69;83.78
6480;DHT22;71753;48.772;9.148;2024-03-08T06:29:49;1.71;83.42
6480;DHT22;71753;48.772;9.148;2024-03-08T06:32:15;1.72;83.54
6480;DHT22;71753;48.772;9.148;2024-03-08T06:34:42;1.80;83.28
6480;DHT22;71753;48.772;9.148;2024-03-08T06:37:08;1.79;83.04
6480;DHT22;71753;48.772;9.148;2024-03-08T06:39:37;1.80;83.03
6480;DHT22;71753;48.772;9.148;2024-03-08T06:42:03;1.77;83.13
6480;DHT22;71753;48.772;9.148;2024-03-08T06:44:31;1.80;83.26
6480;DHT22;71753;48.772;9.148;2024-03-08T06:46:58;1.73;83.22
6480;DHT22;71753;48.772;9.148;2024-03-08T06:49:25;1.76;83.38
6480;DHT22;71753;48.772;9.148;2024-03-08T06:51:52;1.88;83.11
6480;DHT22;71753;48.772;9.148;2024-03-08T06:54:19;1.83;82.65
6480;DHT22;71753;48.772;9.148;2024-03-08T06:56:47;1.85;82.97
6480;DHT22;71753;48.772;9.148;2024-03-08T06:59:14;1.92;82.90
6480;DHT22;71753;48.772;9.148;2024-03-08T07:01:43;1.96;82.44
6480;DHT22;71753;48.772;9.148;2024-03-08T07:04:10;2.10;82.34
6480;DHT22;71753;48.772;9.148;2024-03-08T07:06:37;2.24;81.84
6480;DHT22;71753;48.772;9.148;2024-03-08T07:09:03;2.21;81.63
6480;DHT22;71753;48.772;9.148;2024-03-08T07:11:30;2.15;81.88
6480;DHT22;71753;48.772;9.148;2024-03-08T07:13:58;2.30;80.99
6480;DHT22;71753;48.772;9.148;2024-03-08T07:16:28;2.26;81.26
6480;DHT22;71753;48.772;9.148;2024-03-08T07:18:55;2.26;81.36
6480;DHT22;71753;48.772;9.148;2024-03-08T07:21:24;2.36;81.09
6480;DHT22;71753;48.772;9.148;2024-03-08T07:23:51;2.50;80.81
6480;DHT22;71753;48.772;9.148;2024-03-08T07:26:38;2.38;81.13
6480;DHT22;71753;48.772;9.148;2024-03-08T07:29:07;2.31;81.50
6480;DHT22;71753;48.772;9.148;2024-03-08T07:31:34;2.40;81.23
6480;DHT22;71753;48.772;9.148;2024-03-08T07:34:10;2.35;80.81
6480;DHT22;71753;48.772;9.148;2024-03-08T07:36:37;2.49;80.94
6480;DHT22;71753;48.772;9.148;2024-03-08T07:39:04;2.50;80.08
6480;DHT22;71753;48.772;9.148;2024-03-08T07:41:36;2.58;79.95
6480;DHT22;71753;48.772;9.148;2024-03-08T07:44:06;2.65;80.35
6480;DHT22;71753;48.772;9.148;2024-03-08T07:46:33;2.69;80.07
6480;DHT22;71753;48.772;9.148;2024-03-08T07:49:02;2.64;80.00
6480;DHT22;71753;48.772;9.148;2024-03-08T07:51:28;2.75;79.92
6480;DHT22;71753;48.772;9.148;2024-03-08T07:53:55;2.80;79.45
6480;DHT22;71753;48.772;9.148;2024-03-08T07:56:22;2.86;78.72
6480;DHT22;71753;48.772;9.148;2024-03-08T07:58:50;3.12;78.66
6480;DHT22;71753;48.772;9.148;2024-03-08T08:01:20;3.06;78.28
6480;DHT22;71753;48.772;9.148;2024-03-08T08:03:46;3.34;77.79
6480;DHT22;71753;48.772;9.148;2024-03-08T08:06:15;2.95;78.36
6480;DHT22;71753;48.772;9.148;2024-03-08T08:08:42;2.90;79.00
6480;DHT22;71753;48.772;9.148;2024-03-08T08:11:09;3.00;77.82
6480;DHT22;71753;48.772;9.148;2024-03-08T08:13:37;3.03;78.36
6480;DHT22;71753;48.772;9.148;2024-03-08T08:16:04;3.25;77.56
6480;DHT22;71753;48.772;9.148;2024-03-08T08:18:33;3.38;76.46
6480;DHT22;71753;48.772;9.148;2024-03-08T08:21:01;3.35;76.86
6480;DHT22;71753;48.772;9.148;2024-03-08T08:23:28;3.34;77.24
6480;DHT22;71753;48.772;9.148;2024-03-08T08:25:55;3.19;77.11
6480;DHT22;71753;48.772;9.148;2024-03-08T08:28:22;3.25;77.27
6480;DHT22;71753;48.772;9.148;2024-03-08T08:30:48;2.93;77.57
6480;DHT22;71753;48.772;9.148;2024-03-08T08:33:15;2.98;77.76
6480;DHT22;71753;48.772;9.148;2024-03-08T08:35:43;3.02;77.82
6480;DHT22;71753;48.772;9.148;2024-03-08T08:38:10;3.12;77.40
6480;DHT22;71753;48.772;9.148;2024-03-08T08:40:37;3.15;77.21
6480;DHT22;71753;48.772;9.148;2024-03-08T08:43:04;3.11;77.18
6480;DHT22;71753;48.772;9.148;2024-03-08T08:45:30;3.30;76.88
6480;DHT22;71753;48.772;9.148;2024-03-08T08:47:58;3.28;76.97
6480;DHT22;71753;48.772;9.148;2024-03-08T08:50:26;3.44;76.51
6480;DHT22;71753;48.772;9.148;2024-03-08T08:52:55;3.58;76.56
6480;DHT22;71753;48.772;9.148;2024-03-08T08:55:21;3.38;76.34
6480;DHT22;71753;48.772;9.148;2024-03-08T08:57:50;3.42;76.64
6480;DHT22;71753;48.772;9.148;2024-03-08T09:00:18;3.16;77.18
6480;DHT22;71753;48.772;9.148;2024-03-08T09:02:46;3.17;77.40
6480;DHT22;71753;48.772;9.148;2024-03-08T09:05:13;3.32;77.30
6480;DHT22;71753;48.772;9.148;2024-03-08T09:07:42;3.36;76.80
6480;DHT22;71753;48.772;9.148;2024-03-08T09:10:11;3.20;77.15
6480;DHT22;71753;48.772;9.148;2024-03-08T09:12:39;3.15;77.43
6480;DHT22;71753;48.772;9.148;2024-03-08T09:15:07;3.14;77.39
6480;DHT22;71753;48.772;9.148;2024-03-08T09:17:36;3.21;77.72
6480;DHT22;71753;48.772;9.148;2024-03-08T09:20:06;3.13;77.96
6480;DHT22;71753;48.772;9.148;2024-03-08T09:22:34;3.19;77.90
6480;DHT22;71753;48.772;9.148;2024-03-08T09:25:01;3.25;77.24
6480;DHT22;71753;48.772;9.148;2024-03-08T09:27:29;3.50;76.76
6480;DHT22;71753;48.772;9.148;2024-03-08T09:29:56;3.47;76.95
6480;DHT22;71753;48.772;9.148;2024-03-08T09:32:23;3.53;76.66
6480;DHT22;71753;48.772;9.148;2024-03-08T09:34:49;3.47;76.85
6480;DHT22;71753;48.772;9.148;2024-03-08T09:37:16;3.43;77.30
6480;DHT22;71753;48.772;9.148;2024-03-08T09:39:44;3.70;76.34
6480;DHT22;71753;48.772;9.148;2024-03-08T09:42:11;3.61;76.15
6480;DHT22;71753;48.772;9.148;2024-03-08T09:44:45;3.62;75.96
6480;DHT22;71753;48.772;9.148;2024-03-08T09:47:13;3.72;76.26
6480;DHT22;71753;48.772;9.148;2024-03-08T09:49:40;3.73;75.68
6480;DHT22;71753;48.772;9.148;2024-03-08T09:52:08;3.69;76.13
6480;DHT22;71753;48.772;9.148;2024-03-08T09:54:35;3.91;75.50
6480;DHT22;71753;48.772;9.148;2024-03-08T09:57:03;3.88;75.58
6480;DHT22;71753;48.772;9.148;2024-03-08T09:59:30;3.92;75.38
6480;DHT22;71753;48.772;9.148;2024-03-08T10:02:14;4.00;74.97
6480;DHT22;71753;48.772;9.148;2024-03-08T10:04:41;3.73;75.64
6480;DHT22;71753;48.772;9.148;2024-03-08T10:07:08;4.06;75.57
6480;DHT22;71753;48.772;9.148;2024-03-08T10:09:35;4.10;74.80
6480;DHT22;71753;48.772;9.148;2024-03-08T10:12:02;4.53;73.12
6480;DHT22;71753;48.772;9.148;2024-03-08T10:14:30;4.80;72.67
6480;DHT22;71753;48.772;9.148;2024-03-08T10:16:58;4.56;72.82
6480;DHT22;71753;48.772;9.148;2024-03-08T10:19:26;4.32;73.04
6480;DHT22;71753;48.772;9.148;2024-03-08T10:21:55;4.23;74.15
6480;DHT22;71753;48.772;9.148;2024-03-08T10:24:25;4.50;73.41
6480;DHT22;71753;48.772;9.148;2024-03-08T10:26:52;4.81;72.06
6480;DHT22;71753;48.772;9.148;2024-03-08T10:29:20;4.75;71.84
6480;DHT22;71753;48.772;9.148;2024-03-08T10:31:46;5.28;71.48
6480;DHT22;71753;48.772;9.148;2024-03-08T10:34:13;5.11;70.35
6480;DHT22;71753;48.772;9.148;2024-03-08T10:36:41;5.09;70.21
6480;DHT22;71753;48.772;9.148;2024-03-08T10:39:13;5.02;72.29
6480;DHT22;71753;48.772;9.148;2024-03-08T10:41:43;5.01;70.90
6480;DHT22;71753;48.772;9.148;2024-03-08T10:44:19;4.66;71.26
6480;DHT22;71753;48.772;9.148;2024-03-08T10:47:00;5.02;71.45
6480;DHT22;71753;48.772;9.148;2024-03-08T10:49:31;5.13;69.72
6480;DHT22;71753;48.772;9.148;2024-03-08T10:52:03;5.11;72.12
6480;DHT22;71753;48.772;9.148;2024-03-08T10:54:31;5.57;70.41
6480;DHT22;71753;48.772;9.148;2024-03-08T10:56:59;5.35;69.15
6480;DHT22;71753;48.772;9.148;2024-03-08T10:59:26;5.07;70.15
6480;DHT22;71753;48.772;9.148;2024-03-08T11:01:53;5.33;69.71
6480;DHT22;71753;48.772;9.148;2024-03-08T11:04:20;5.66;69.18
6480;DHT22;71753;48.772;9.148;2024-03-08T11:06:50;5.15;70.08
6480;DHT22;71753;48.772;9.148;2024-03-08T11:09:29;5.33;69.84
6480;DHT22;71753;48.772;9.148;2024-03-08T11:12:24;4.98;70.82
6480;DHT22;71753;48.772;9.148;2024-03-08T11:14:52;5.17;70.04
6480;DHT22;71753;48.772;9.148;2024-03-08T11:17:39;5.54;69.01
6480;DHT22;71753;48.772;9.148;2024-03-08T11:20:10;5.68;69.16
6480;DHT22;71753;48.772;9.148;2024-03-08T11:22:41;5.45;69.60
6480;DHT22;71753;48.772;9.148;2024-03-08T11:25:31;5.65;69.40
6480;DHT22;71753;48.772;9.148;2024-03-08T11:28:16;5.85;68.10
6480;DHT22;71753;48.772;9.148;2024-03-08T11:30:44;5.31;69.70
6480;DHT22;71753;48.772;9.148;2024-03-08T11:33:13;5.46;69.61
6480;DHT22;71753;48.772;9.148;2024-03-08T11:35:39;5.92;68.75
6480;DHT22;71753;48.772;9.148;2024-03-08T11:38:08;6.33;67.11
6480;DHT22;71753;48.772;9.148;2024-03-08T11:40:36;6.24;67.01
6480;DHT22;71753;48.772;9.148;2024-03-08T11:43:03;6.25;66.84
6480;DHT22;71753;48.772;9.148;2024-03-08T11:45:33;5.95;68.72
6480;DHT22;71753;48.772;9.148;2024-03-08T11:48:02;5.91;67.72
6480;DHT22;71753;48.772;9.148;2024-03-08T11:50:30;6.04;68.42
6480;DHT22;71753;48.772;9.148;2024-03-08T11:53:01;6.01;67.33
6480;DHT22;71753;48.772;9.148;2024-03-08T11:55:28;6.08;67.81
6480;DHT22;71753;48.772;9.148;2024-03-08T11:58:02;6.07;67.38
6480;DHT22;71753;48.772;9.148;2024-03-08T12:00:29;5.75;68.01
6480;DHT22;71753;48.772;9.148;2024-03-08T12:03:04;6.11;67.55
6480;DHT22;71753;48.772;9.148;2024-03-08T12:05:32;5.98;67.67
6480;DHT22;71753;48.772;9.148;2024-03-08T12:08:00;5.84;67.86
6480;DHT22;71753;48.772;9.148;2024-03-08T12:10:27;5.75;68.36
6480;DHT22;71753;48.772;9.148;2024-03-08T12:12:55;6.11;67.81
6480;DHT22;71753;48.772;9.148;2024-03-08T12:15:26;5.61;68.98
6480;DHT22;71753;48.772;9.148;2024-03-08T12:17:55;6.11;67.28
6480;DHT22;71753;48.772;9.148;2024-03-08T12:20:23;6.29;66.76
6480;DHT22;71753;48.772;9.148;2024-03-08T12:22:51;6.64;64.89
6480;DHT22;71753;48.772;9.148;2024-03-08T12:25:19;6.81;65.48
6480;DHT22;71753;48.772;9.148;2024-03-08T12:27:46;6.68;64.62
6480;DHT22;71753;48.772;9.148;2024-03-08T12:30:21;6.50;66.30
6480;DHT22;71753;48.772;9.148;2024-03-08T12:32:54;6.48;66.17
6480;DHT22;71753;48.772;9.148;2024-03-08T12:35:24;6.43;65.75
6480;DHT22;71753;48.772;9.148;2024-03-08T12:37:52;6.40;65.55
6480;DHT22;71753;48.772;9.148;2024-03-08T12:40:25;6.71;65.44
6480;DHT22;71753;48.772;9.148;2024-03-08T12:42:53;7.10;63.79
6480;DHT22;71753;48.772;9.148;2024-03-08T12:45:20;7.04;63.53
6480;DHT22;71753;48.772;9.148;2024-03-08T12:47:49;7.17;63.58
6480;DHT22;71753;48.772;9.148;2024-03-08T12:50:17;7.28;63.64
6480;DHT22;71753;48.772;9.148;2024-03-08T12:52:44;7.25;63.97
6480;DHT22;71753;48.772;9.148;2024-03-08T12:55:11;6.91;64.71
6480;DHT22;71753;48.772;9.148;2024-03-08T12:57:38;7.22;63.06
6480;DHT22;71753;48.772;9.148;2024-03-08T13:00:05;7.25;63.37
6480;DHT22;71753;48.772;9.148;2024-03-08T13:02:38;7.12;63.60
6480;DHT22;71753;48.772;9.148;2024-03-08T13:05:06;7.18;63.59
6480;DHT22;71753;48.772;9.148;2024-03-08T13:07:36;7.32;63.80
6480;DHT22;71753;48.772;9.148;2024-03-08T13:10:04;7.72;61.83
6480;DHT22;71753;48.772;9.148;2024-03-08T13:12:32;7.44;63.18
6480;DHT22;71753;48.772;9.148;2024-03-08T13:15:01;7.09;64.08
6480;DHT22;71753;48.772;9.148;2024-03-08T13:17:28;7.54;63.24
6480;DHT22;71753;48.772;9.148;2024-03-08T13:19:55;7.48;63.24
6480;DHT22;71753;48.772;9.148;2024-03-08T13:22:24;7.61;62.37
6480;DHT22;71753;48.772;9.148;2024-03-08T13:24:52;7.63;62.51
6480;DHT22;71753;48.772;9.148;2024-03-08T13:27:19;7.79;61.98
6480;DHT22;71753;48.772;9.148;2024-03-08T13:29:47;7.52;62.43
6480;DHT22;71753;48.772;9.148;2024-03-08T13:32:15;7.61;62.59
6480;DHT22;71753;48.772;9.148;2024-03-08T13:34:42;7.75;61.93
6480;DHT22;71753;48.772;9.148;2024-03-08T13:37:09;7.82;61.69
6480;DHT22;71753;48.772;9.148;2024-03-08T13:39:37;7.79;62.46
6480;DHT22;71753;48.772;9.148;2024-03-08T13:42:10;7.75;62.30
6480;DHT22;71753;48.772;9.148;2024-03-08T13:44:39;8.05;61.74
6480;DHT22;71753;48.772;9.148;2024-03-08T13:47:09;8.00;61.80
6480;DHT22;71753;48.772;9.148;2024-03-08T13:49:37;7.87;61.74
6480;DHT22;71753;48.772;9.148;2024-03-08T13:52:04;7.55;62.29
6480;DHT22;71753;48.772;9.148;2024-03-08T13:54:33;7.59;63.20
6480;DHT22;71753;48.772;9.148;2024-03-08T13:57:01;7.59;62.57
6480;DHT22;71753;48.772;9.148;2024-03-08T13:59:30;7.68;62.15
6480;DHT22;71753;48.772;9.148;2024-03-08T14:01:58;7.79;61.91
6480;DHT22;71753;48.772;9.148;2024-03-08T14:04:26;7.93;61.97
6480;DHT22;71753;48.772;9.148;2024-03-08T14:06:53;7.87;61.97
6480;DHT22;71753;48.772;9.148;2024-03-08T14:09:23;7.88;62.00
6480;DHT22;71753;48.772;9.148;2024-03-08T14:11:50;8.06;61.89
6480;DHT22;71753;48.772;9.148;2024-03-08T14:14:20;7.94;61.54
6480;DHT22;71753;48.772;9.148;2024-03-08T14:16:50;8.15;60.84
6480;DHT22;71753;48.772;9.148;2024-03-08T14:19:18;8.14;60.54
6480;DHT22;71753;48.772;9.148;2024-03-08T14:21:46;8.16;60.26
6480;DHT22;71753;48.772;9.148;2024-03-08T14:24:14;8.21;60.36
6480;DHT22;71753;48.772;9.148;2024-03-08T14:26:41;8.15;60.48
6480;DHT22;71753;48.772;9.148;2024-03-08T14:29:08;8.24;59.56
6480;DHT22;71753;48.772;9.148;2024-03-08T14:31:35;8.26;60.08
6480;DHT22;71753;48.772;9.148;2024-03-08T14:34:03;8.28;60.13
6480;DHT22;71753;48.772;9.148;2024-03-08T14:36:30;8.34;60.15
6480;DHT22;71753;48.772;9.148;2024-03-08T14:38:57;8.33;60.17
6480;DHT22;71753;48.772;9.148;2024-03-08T14:41:24;8.36;59.82
6480;DHT22;71753;48.772;9.148;2024-03-08T14:43:52;8.56;59.91
6480;DHT22;71753;48.772;9.148;2024-03-08T14:46:19;8.75;58.83
6480;DHT22;71753;48.772;9.148;2024-03-08T14:48:48;8.66;58.71
6480;DHT22;71753;48.772;9.148;2024-03-08T14:51:18;8.61;59.09
6480;DHT22;71753;48.772;9.148;2024-03-08T14:53:48;8.65;58.98
6480;DHT22;71753;48.772;9.148;2024-03-08T14:56:15;8.92;58.19
6480;DHT22;71753;48.772;9.148;2024-03-08T14:58:43;9.15;57.91
6480;DHT22;71753;48.772;9.148;2024-03-08T15:01:10;8.96;58.46
6480;DHT22;71753;48.772;9.148;2024-03-08T15:03:39;9.17;57.84
6480;DHT22;71753;48.772;9.148;2024-03-08T15:06:06;9.17;58.32
6480;DHT22;71753;48.772;9.148;2024-03-08T15:08:37;9.11;58.62
6480;DHT22;71753;48.772;9.148;2024-03-08T15:11:04;9.21;58.39
6480;DHT22;71753;48.772;9.148;2024-03-08T15:13:31;9.24;58.38
6480;DHT22;71753;48.772;9.148;2024-03-08T15:16:05;9.37;58.36
6480;DHT22;71753;48.772;9.148;2024-03-08T15:18:33;9.40;57.71
6480;DHT22;71753;48.772;9.148;2024-03-08T15:21:03;9.24;58.24
6480;DHT22;71753;48.772;9.148;2024-03-08T15:23:33;9.09;58.76
6480;DHT22;71753;48.772;9.148;2024-03-08T15:26:01;9.02;59.38
6480;DHT22;71753;48.772;9.148;2024-03-08T15:28:29;9.09;59.03
6480;DHT22;71753;48.772;9.148;2024-03-08T15:31:03;9.11;59.82
6480;DHT22;71753;48.772;9.148;2024-03-08T15:33:33;8.95;59.49
6480;DHT22;71753;48.772;9.148;2024-03-08T15:35:59;8.94;59.09
6480;DHT22;71753;48.772;9.148;2024-03-08T15:38:33;9.01;59.35
6480;DHT22;71753;48.772;9.148;2024-03-08T15:41:01;9.01;59.24
6480;DHT22;71753;48.772;9.148;2024-03-08T15:43:28;9.07;59.10
6480;DHT22;71753;48.772;9.148;2024-03-08T15:45:55;9.05;58.97
6480;DHT22;71753;48.772;9.148;2024-03-08T15:48:23;9.04;59.19
6480;DHT22;71753;48.772;9.148;2024-03-08T15:50:50;9.04;58.89
6480;DHT22;71753;48.772;9.148;2024-03-08T15:53:17;9.10;59.03
6480;DHT22;71753;48.772;9.148;2024-03-08T15:55:44;9.08;59.12
6480;DHT22;71753;48.772;9.148;2024-03-08T15:58:13;9.05;59.40
6480;DHT22;71753;48.772;9.148;2024-03-08T16:00:40;9.02;59.39
6480;DHT22;71753;48.772;9.148;2024-03-08T16:03:12;9.03;59.72
6480;DHT22;71753;48.772;9.148;2024-03-08T16:05:40;9.00;59.77
6480;DHT22;71753;48.772;9.148;2024-03-08T16:08:09;9.02;59.56